sensor_id;sensor_type;location;lat;lon;timestamp;temperature;humidity
56771;DHT22;42641;59.794;17.616;2023-09-19T00:00:43;16.70;99.90
56771;DHT22;42641;59.794;17.616;2023-09-19T00:03:10;16.70;99.90
56771;DHT22;42641;59.794;17.616;2023-09-19T00:05:38;16.70;99.90
56771;DHT22;42641;59.794;17.616;2023-09-19T00:08:05;16.70;99.90
56771;DHT22;42641;59.794;17.616;2023-09-19T00:10:33;16.70;99.90
56771;DHT22;42641;59.794;17.616;2023-09-19T00:13:03;16.80;99.90
56771;DHT22;42641;59.794;17.616;2023-09-19T00:15:39;16.80;99.90
56771;DHT22;42641;59.794;17.616;2023-09-19T00:18:07;16.80;99.90
56771;DHT22;42641;59.794;17.616;2023-09-19T00:20:38;16.80;99.90
56771;DHT22;42641;59.794;17.616;2023-09-19T00:23:05;16.90;99.90
56771;DHT22;42641;59.794;17.616;2023-09-19T00:25:31;16.90;99.90
56771;DHT22;42641;59.794;17.616;2023-09-19T00:27:58;16.90;99.90
56771;DHT22;42641;59.794;17.616;2023-09-19T00:30:24;16.90;99.90
56771;DHT22;42641;59.794;17.616;2023-09-19T00:32:51;16.90;99.90
56771;DHT22;42641;59.794;17.616;2023-09-19T00:35:23;16.90;99.90
56771;DHT22;42641;59.794;17.616;2023-09-19T00:37:51;16.90;99.90
56771;DHT22;42641;59.794;17.616;2023-09-19T00:40:18;16.90;99.90
56771;DHT22;42641;59.794;17.616;2023-09-19T00:42:45;17.00;99.90
56771;DHT22;42641;59.794;17.616;2023-09-19T00:45:14;17.00;99.90
56771;DHT22;42641;59.794;17.616;2023-09-19T00:47:50;17.00;99.90
56771;DHT22;42641;59.794;17.616;2023-09-19T00:50:23;17.10;99.90
56771;DHT22;42641;59.794;17.616;2023-09-19T00:52:53;17.10;99.90
56771;DHT22;42641;59.794;17.616;2023-09-19T00:55:20;17.00;99.90
56771;DHT22;42641;59.794;17.616;2023-09-19T00:57:47;17.00;99.90
56771;DHT22;42641;59.794;17.616;2023-09-19T01:00:16;17.00;99.90
56771;DHT22;42641;59.794;17.616;2023-09-19T01:02:45;17.10;99.90
56771;DHT22;42641;59.794;17.616;2023-09-19T01:05:13;17.00;99.90
56771;DHT22;42641;59.794;17.616;2023-09-19T01:07:40;17.00;99.90
56771;DHT22;42641;59.794;17.616;2023-09-19T01:10:14;17.00;99.90
56771;DHT22;42641;59.794;17.616;2023-09-19T01:15:59;17.00;99.90
56771;DHT22;42641;59.794;17.616;2023-09-19T01:18:58;17.10;99.90
56771;DHT22;42641;59.794;17.616;2023-09-19T01:24:54;17.00;99.90
56771;DHT22;42641;59.794;17.616;2023-09-19T01:27:53;17.00;99.90
56771;DHT22;42641;59.794;17.616;2023-09-19T01:30:27;17.10;99.90
56771;DHT22;42641;59.794;17.616;2023-09-19T01:32:59;17.10;99.90
56771;DHT22;42641;59.794;17.616;2023-09-19T01:35:26;17.10;99.90
56771;DHT22;42641;59.794;17.616;2023-09-19T01:37:54;17.10;99.90
56771;DHT22;42641;59.794;17.616;2023-09-19T01:40:21;17.10;99.90
56771;DHT22;42641;59.794;17.616;2023-09-19T01:47:53;17.20;99.90
56771;DHT22;42641;59.794;17.616;2023-09-19T01:50:37;17.20;99.90
56771;DHT22;42641;59.794;17.616;2023-09-19T01:53:13;17.20;99.90
56771;DHT22;42641;59.794;17.616;2023-09-19T01:55:46;17.20;99.90
56771;DHT22;42641;59.794;17.616;2023-09-19T01:58:27;17.20;99.90
56771;DHT22;42641;59.794;17.616;2023-09-19T02:00:56;17.20;99.90
56771;DHT22;42641;59.794;17.616;2023-09-19T02:03:26;17.30;99.90
56771;DHT22;42641;59.794;17.616;2023-09-19T02:05:55;17.30;99.90
56771;DHT22;42641;59.794;17.616;2023-09-19T02:08:23;17.30;99.90
56771;DHT22;42641;59.794;17.616;2023-09-19T02:10:52;17.30;99.90
56771;DHT22;42641;59.794;17.616;2023-09-19T02:13:21;17.30;99.90
56771;DHT22;42641;59.794;17.616;2023-09-19T02:15:51;17.30;99.90
56771;DHT22;42641;59.794;17.616;2023-09-19T02:18:17;17.30;99.90
56771;DHT22;42641;59.794;17.616;2023-09-19T02:20:44;17.30;99.90
56771;DHT22;42641;59.794;17.616;2023-09-19T02:23:12;17.20;99.90
56771;DHT22;42641;59.794;17.616;2023-09-19T02:25:39;17.20;99.90
56771;DHT22;42641;59.794;17.616;2023-09-19T02:28:09;17.20;99.90
56771;DHT22;42641;59.794;17.616;2023-09-19T02:30:37;17.20;99.90
56771;DHT22;42641;59.794;17.616;2023-09-19T02:33:05;17.20;99.90
56771;DHT22;42641;59.794;17.616;2023-09-19T02:35:31;17.20;99.90
56771;DHT22;42641;59.794;17.616;2023-09-19T02:38:02;17.20;99.90
56771;DHT22;42641;59.794;17.616;2023-09-19T02:40:33;17.20;99.90
56771;DHT22;42641;59.794;17.616;2023-09-19T02:43:02;17.20;99.90
56771;DHT22;42641;59.794;17.616;2023-09-19T02:45:28;17.20;99.90
56771;DHT22;42641;59.794;17.616;2023-09-19T02:47:57;17.20;99.90
56771;DHT22;42641;59.794;17.616;2023-09-19T02:50:24;17.20;99.90
56771;DHT22;42641;59.794;17.616;2023-09-19T02:52:50;17.20;99.90
56771;DHT22;42641;59.794;17.616;2023-09-19T02:55:18;17.20;99.90
56771;DHT22;42641;59.794;17.616;2023-09-19T02:57:46;17.20;99.90
56771;DHT22;42641;59.794;17.616;2023-09-19T03:00:13;17.20;99.90
56771;DHT22;42641;59.794;17.616;2023-09-19T03:02:40;17.20;99.90
56771;DHT22;42641;59.794;17.616;2023-09-19T03:05:08;17.30;99.90
56771;DHT22;42641;59.794;17.616;2023-09-19T03:07:37;17.30;99.90
56771;DHT22;42641;59.794;17.616;2023-09-19T03:10:06;17.30;99.90
56771;DHT22;42641;59.794;17.616;2023-09-19T03:12:33;17.30;99.90
56771;DHT22;42641;59.794;17.616;2023-09-19T03:15:01;17.30;99.90
56771;DHT22;42641;59.794;17.616;2023-09-19T03:17:28;17.40;99.90
56771;DHT22;42641;59.794;17.616;2023-09-19T03:19:55;17.40;99.90
56771;DHT22;42641;59.794;17.616;2023-09-19T03:22:23;17.40;99.90
56771;DHT22;42641;59.794;17.616;2023-09-19T03:24:51;17.40;99.90
56771;DHT22;42641;59.794;17.616;2023-09-19T03:27:18;17.40;99.90
56771;DHT22;42641;59.794;17.616;2023-09-19T03:29:47;17.50;99.90
56771;DHT22;42641;59.794;17.616;2023-09-19T03:32:14;17.40;99.90
56771;DHT22;42641;59.794;17.616;2023-09-19T03:34:41;17.50;99.90
56771;DHT22;42641;59.794;17.616;2023-09-19T03:37:10;17.50;99.90
56771;DHT22;42641;59.794;17.616;2023-09-19T03:39:37;17.50;99.90
56771;DHT22;42641;59.794;17.616;2023-09-19T03:42:04;17.50;99.90
56771;DHT22;42641;59.794;17.616;2023-09-19T03:44:31;17.50;99.90
56771;DHT22;42641;59.794;17.616;2023-09-19T03:46:57;17.60;99.90
56771;DHT22;42641;59.794;17.616;2023-09-19T03:49:24;17.60;99.90
56771;DHT22;42641;59.794;17.616;2023-09-19T03:51:51;17.60;99.90
56771;DHT22;42641;59.794;17.616;2023-09-19T03:54:18;17.60;99.90
56771;DHT22;42641;59.794;17.616;2023-09-19T03:56:46;17.60;99.90
56771;DHT22;42641;59.794;17.616;2023-09-19T03:59:12;17.60;99.90
56771;DHT22;42641;59.794;17.616;2023-09-19T04:01:38;17.70;99.90
56771;DHT22;42641;59.794;17.616;2023-09-19T04:04:08;17.70;99.90
56771;DHT22;42641;59.794;17.616;2023-09-19T04:06:36;17.70;99.90
56771;DHT22;42641;59.794;17.616;2023-09-19T04:09:03;17.70;99.90
56771;DHT22;42641;59.794;17.616;2023-09-19T04:11:30;17.70;99.90
56771;DHT22;42641;59.794;17.616;2023-09-19T04:13:57;17.80;99.90
56771;DHT22;42641;59.794;17.616;2023-09-19T04:16:23;17.80;99.90
56771;DHT22;42641;59.794;17.616;2023-09-19T04:18:50;17.80;99.90
56771;DHT22;42641;59.794;17.616;2023-09-19T04:21:16;17.80;99.90
56771;DHT22;42641;59.794;17.616;2023-09-19T04:23:43;17.80;99.90
56771;DHT22;42641;59.794;17.616;2023-09-19T04:26:09;17.80;99.90
56771;DHT22;42641;59.794;17.616;2023-09-19T04:28:36;17.80;99.90
56771;DHT22;42641;59.794;17.616;2023-09-19T04:31:04;17.80;99.90
56771;DHT22;42641;59.794;17.616;2023-09-19T04:33:31;17.90;99.90
56771;DHT22;42641;59.794;17.616;2023-09-19T04:36:02;17.90;99.90
56771;DHT22;42641;59.794;17.616;2023-09-19T04:38:29;17.90;99.90
56771;DHT22;42641;59.794;17.616;2023-09-19T04:40:59;17.90;99.90
56771;DHT22;42641;59.794;17.616;2023-09-19T04:43:26;18.00;99.90
56771;DHT22;42641;59.794;17.616;2023-09-19T04:45:52;18.00;99.90
56771;DHT22;42641;59.794;17.616;2023-09-19T04:48:22;18.00;99.90
56771;DHT22;42641;59.794;17.616;2023-09-19T04:50:52;18.00;99.90
56771;DHT22;42641;59.794;17.616;2023-09-19T04:53:18;18.00;99.90
56771;DHT22;42641;59.794;17.616;2023-09-19T04:55:51;18.00;99.90
56771;DHT22;42641;59.794;17.616;2023-09-19T04:58:18;18.00;99.90
56771;DHT22;42641;59.794;17.616;2023-09-19T05:00:46;18.10;99.90
56771;DHT22;42641;59.794;17.616;2023-09-19T05:03:12;18.10;99.90
56771;DHT22;42641;59.794;17.616;2023-09-19T05:05:39;18.10;99.90
56771;DHT22;42641;59.794;17.616;2023-09-19T05:08:07;18.10;99.90
56771;DHT22;42641;59.794;17.616;2023-09-19T05:10:35;18.20;99.90
56771;DHT22;42641;59.794;17.616;2023-09-19T05:13:05;18.20;99.90
56771;DHT22;42641;59.794;17.616;2023-09-19T05:15:33;18.20;99.90
56771;DHT22;42641;59.794;17.616;2023-09-19T05:18:02;18.20;99.90
56771;DHT22;42641;59.794;17.616;2023-09-19T05:20:29;18.20;99.90
56771;DHT22;42641;59.794;17.616;2023-09-19T05:23:01;18.20;99.90
56771;DHT22;42641;59.794;17.616;2023-09-19T05:25:30;18.20;99.90
56771;DHT22;42641;59.794;17.616;2023-09-19T05:27:58;18.20;99.90
56771;DHT22;42641;59.794;17.616;2023-09-19T05:30:26;18.30;99.90
56771;DHT22;42641;59.794;17.616;2023-09-19T05:32:55;18.30;99.90
56771;DHT22;42641;59.794;17.616;2023-09-19T05:35:23;18.30;99.90
56771;DHT22;42641;59.794;17.616;2023-09-19T05:37:54;18.30;99.90
56771;DHT22;42641;59.794;17.616;2023-09-19T05:40:21;18.30;99.90
56771;DHT22;42641;59.794;17.616;2023-09-19T05:42:48;18.30;99.90
56771;DHT22;42641;59.794;17.616;2023-09-19T05:45:16;18.30;99.90
56771;DHT22;42641;59.794;17.616;2023-09-19T05:47:49;18.30;99.90
56771;DHT22;42641;59.794;17.616;2023-09-19T05:50:17;18.30;99.90
56771;DHT22;42641;59.794;17.616;2023-09-19T05:52:51;18.40;99.90
56771;DHT22;42641;59.794;17.616;2023-09-19T05:55:18;18.40;99.90
56771;DHT22;42641;59.794;17.616;2023-09-19T05:57:52;18.40;99.90
56771;DHT22;42641;59.794;17.616;2023-09-19T06:00:19;18.40;99.90
56771;DHT22;42641;59.794;17.616;2023-09-19T06:02:55;18.40;99.90
56771;DHT22;42641;59.794;17.616;2023-09-19T06:05:21;18.40;99.90
56771;DHT22;42641;59.794;17.616;2023-09-19T06:07:48;18.40;99.90
56771;DHT22;42641;59.794;17.616;2023-09-19T06:10:16;18.50;99.90
56771;DHT22;42641;59.794;17.616;2023-09-19T06:12:43;18.50;99.90
56771;DHT22;42641;59.794;17.616;2023-09-19T06:15:11;18.50;99.90
56771;DHT22;42641;59.794;17.616;2023-09-19T06:17:50;18.50;99.90
56771;DHT22;42641;59.794;17.616;2023-09-19T06:20:17;18.50;99.90
56771;DHT22;42641;59.794;17.616;2023-09-19T06:22:46;18.60;99.90
56771;DHT22;42641;59.794;17.616;2023-09-19T06:25:14;18.60;99.90
56771;DHT22;42641;59.794;17.616;2023-09-19T06:27:48;18.60;99.90
56771;DHT22;42641;59.794;17.616;2023-09-19T06:30:18;18.70;99.90
56771;DHT22;42641;59.794;17.616;2023-09-19T06:32:45;18.70;99.90
56771;DHT22;42641;59.794;17.616;2023-09-19T06:35:12;18.70;99.90
56771;DHT22;42641;59.794;17.616;2023-09-19T06:37:40;18.70;99.90
56771;DHT22;42641;59.794;17.616;2023-09-19T06:40:08;18.70;99.90
56771;DHT22;42641;59.794;17.616;2023-09-19T06:42:45;18.70;99.90
56771;DHT22;42641;59.794;17.616;2023-09-19T06:45:12;18.70;99.90
56771;DHT22;42641;59.794;17.616;2023-09-19T06:47:40;18.70;99.90
56771;DHT22;42641;59.794;17.616;2023-09-19T06:50:07;18.70;99.90
56771;DHT22;42641;59.794;17.616;2023-09-19T06:52:42;18.80;99.90
56771;DHT22;42641;59.794;17.616;2023-09-19T06:55:09;18.80;99.90
56771;DHT22;42641;59.794;17.616;2023-09-19T06:57:39;18.80;99.90
56771;DHT22;42641;59.794;17.616;2023-09-19T07:00:13;18.80;99.90
56771;DHT22;42641;59.794;17.616;2023-09-19T07:02:53;18.80;99.90
56771;DHT22;42641;59.794;17.616;2023-09-19T07:05:20;18.80;99.90
56771;DHT22;42641;59.794;17.616;2023-09-19T07:07:47;18.90;99.90
56771;DHT22;42641;59.794;17.616;2023-09-19T07:10:14;18.90;99.90
56771;DHT22;42641;59.794;17.616;2023-09-19T07:12:40;18.90;99.90
56771;DHT22;42641;59.794;17.616;2023-09-19T07:15:08;18.90;99.90
56771;DHT22;42641;59.794;17.616;2023-09-19T07:17:35;18.90;99.90
56771;DHT22;42641;59.794;17.616;2023-09-19T07:20:03;18.90;99.90
56771;DHT22;42641;59.794;17.616;2023-09-19T07:22:34;18.80;99.90
56771;DHT22;42641;59.794;17.616;2023-09-19T07:25:00;18.90;99.90
56771;DHT22;42641;59.794;17.616;2023-09-19T07:27:27;18.90;99.90
56771;DHT22;42641;59.794;17.616;2023-09-19T07:29:53;18.90;99.90
56771;DHT22;42641;59.794;17.616;2023-09-19T07:32:20;18.90;99.90
56771;DHT22;42641;59.794;17.616;2023-09-19T07:34:46;18.90;99.90
56771;DHT22;42641;59.794;17.616;2023-09-19T07:37:13;18.90;99.90
56771;DHT22;42641;59.794;17.616;2023-09-19T07:39:41;19.00;99.90
56771;DHT22;42641;59.794;17.616;2023-09-19T07:42:09;19.10;99.90
56771;DHT22;42641;59.794;17.616;2023-09-19T07:44:37;19.10;99.90
56771;DHT22;42641;59.794;17.616;2023-09-19T07:47:04;19.10;99.90
56771;DHT22;42641;59.794;17.616;2023-09-19T07:49:30;19.10;99.90
56771;DHT22;42641;59.794;17.616;2023-09-19T07:51:57;19.10;99.90
56771;DHT22;42641;59.794;17.616;2023-09-19T07:54:23;19.20;99.90
56771;DHT22;42641;59.794;17.616;2023-09-19T07:56:49;19.20;99.90
56771;DHT22;42641;59.794;17.616;2023-09-19T07:59:16;19.20;99.90
56771;DHT22;42641;59.794;17.616;2023-09-19T08:01:43;19.20;99.90
56771;DHT22;42641;59.794;17.616;2023-09-19T08:04:10;19.20;99.90
56771;DHT22;42641;59.794;17.616;2023-09-19T08:06:36;19.10;99.90
56771;DHT22;42641;59.794;17.616;2023-09-19T08:09:05;19.10;99.90
56771;DHT22;42641;59.794;17.616;2023-09-19T08:11:35;19.20;99.90
56771;DHT22;42641;59.794;17.616;2023-09-19T08:14:01;19.10;99.90
56771;DHT22;42641;59.794;17.616;2023-09-19T08:16:28;19.10;99.90
56771;DHT22;42641;59.794;17.616;2023-09-19T08:18:54;19.10;99.90
56771;DHT22;42641;59.794;17.616;2023-09-19T08:21:24;19.20;99.90
56771;DHT22;42641;59.794;17.616;2023-09-19T08:23:52;19.20;99.90
56771;DHT22;42641;59.794;17.616;2023-09-19T08:26:18;19.20;99.90
56771;DHT22;42641;59.794;17.616;2023-09-19T08:28:46;19.30;99.90
56771;DHT22;42641;59.794;17.616;2023-09-19T08:31:12;19.30;99.90
56771;DHT22;42641;59.794;17.616;2023-09-19T08:33:40;19.30;99.90
56771;DHT22;42641;59.794;17.616;2023-09-19T08:36:07;19.30;99.90
56771;DHT22;42641;59.794;17.616;2023-09-19T08:38:35;19.20;99.90
56771;DHT22;42641;59.794;17.616;2023-09-19T08:41:07;19.20;99.90
56771;DHT22;42641;59.794;17.616;2023-09-19T08:43:34;19.20;99.90
56771;DHT22;42641;59.794;17.616;2023-09-19T08:46:13;19.20;99.90
56771;DHT22;42641;59.794;17.616;2023-09-19T08:48:57;19.20;99.90
56771;DHT22;42641;59.794;17.616;2023-09-19T08:51:45;19.20;99.90
56771;DHT22;42641;59.794;17.616;2023-09-19T08:54:24;19.20;99.90
56771;DHT22;42641;59.794;17.616;2023-09-19T08:56:54;19.30;99.90
56771;DHT22;42641;59.794;17.616;2023-09-19T08:59:22;19.30;99.90
56771;DHT22;42641;59.794;17.616;2023-09-19T09:01:53;19.40;99.90
56771;DHT22;42641;59.794;17.616;2023-09-19T09:04:22;19.50;99.90
56771;DHT22;42641;59.794;17.616;2023-09-19T09:06:49;19.50;99.90
56771;DHT22;42641;59.794;17.616;2023-09-19T09:09:20;19.60;99.90
56771;DHT22;42641;59.794;17.616;2023-09-19T09:11:48;19.70;99.90
56771;DHT22;42641;59.794;17.616;2023-09-19T09:14:21;19.80;99.90
56771;DHT22;42641;59.794;17.616;2023-09-19T09:16:48;19.90;99.90
56771;DHT22;42641;59.794;17.616;2023-09-19T09:19:15;19.90;99.90
56771;DHT22;42641;59.794;17.616;2023-09-19T09:21:47;20.00;99.90
56771;DHT22;42641;59.794;17.616;2023-09-19T09:24:27;20.10;99.90
56771;DHT22;42641;59.794;17.616;2023-09-19T09:26:55;20.20;99.90
56771;DHT22;42641;59.794;17.616;2023-09-19T09:29:45;20.10;99.90
56771;DHT22;42641;59.794;17.616;2023-09-19T09:34:57;19.90;99.90
56771;DHT22;42641;59.794;17.616;2023-09-19T09:37:25;19.90;99.90
56771;DHT22;42641;59.794;17.616;2023-09-19T09:39:57;19.90;99.90
56771;DHT22;42641;59.794;17.616;2023-09-19T09:42:35;20.00;99.90
56771;DHT22;42641;59.794;17.616;2023-09-19T09:45:15;20.20;99.90
56771;DHT22;42641;59.794;17.616;2023-09-19T09:47:48;20.20;99.90
56771;DHT22;42641;59.794;17.616;2023-09-19T09:50:33;20.20;99.90
56771;DHT22;42641;59.794;17.616;2023-09-19T09:55:59;20.50;99.90
56771;DHT22;42641;59.794;17.616;2023-09-19T09:58:51;20.60;99.90
56771;DHT22;42641;59.794;17.616;2023-09-19T10:01:26;20.50;99.90
56771;DHT22;42641;59.794;17.616;2023-09-19T10:03:58;20.50;99.90
56771;DHT22;42641;59.794;17.616;2023-09-19T10:06:26;20.30;99.90
56771;DHT22;42641;59.794;17.616;2023-09-19T10:09:04;20.30;99.90
56771;DHT22;42641;59.794;17.616;2023-09-19T10:11:44;20.40;99.90
56771;DHT22;42641;59.794;17.616;2023-09-19T10:14:15;20.40;99.90
56771;DHT22;42641;59.794;17.616;2023-09-19T10:16:46;20.50;99.90
56771;DHT22;42641;59.794;17.616;2023-09-19T10:19:47;20.90;99.90
56771;DHT22;42641;59.794;17.616;2023-09-19T10:22:17;21.10;99.90
56771;DHT22;42641;59.794;17.616;2023-09-19T10:24:49;21.20;99.90
56771;DHT22;42641;59.794;17.616;2023-09-19T10:27:20;21.30;99.90
56771;DHT22;42641;59.794;17.616;2023-09-19T10:29:49;21.50;99.90
56771;DHT22;42641;59.794;17.616;2023-09-19T10:32:18;21.60;99.90
56771;DHT22;42641;59.794;17.616;2023-09-19T10:34:50;21.50;99.90
56771;DHT22;42641;59.794;17.616;2023-09-19T10:37:24;21.40;99.90
56771;DHT22;42641;59.794;17.616;2023-09-19T10:39:56;21.30;99.90
56771;DHT22;42641;59.794;17.616;2023-09-19T10:42:25;21.30;99.90
56771;DHT22;42641;59.794;17.616;2023-09-19T10:44:55;21.40;99.90
56771;DHT22;42641;59.794;17.616;2023-09-19T10:47:26;21.40;99.90
56771;DHT22;42641;59.794;17.616;2023-09-19T10:49:53;21.40;99.90
56771;DHT22;42641;59.794;17.616;2023-09-19T10:52:23;21.70;99.90
56771;DHT22;42641;59.794;17.616;2023-09-19T10:54:53;21.90;99.90
56771;DHT22;42641;59.794;17.616;2023-09-19T10:57:23;22.00;99.90
56771;DHT22;42641;59.794;17.616;2023-09-19T11:00:08;21.90;99.90
56771;DHT22;42641;59.794;17.616;2023-09-19T11:05:39;21.30;99.90
56771;DHT22;42641;59.794;17.616;2023-09-19T11:08:07;21.10;99.90
56771;DHT22;42641;59.794;17.616;2023-09-19T11:10:47;20.90;99.90
56771;DHT22;42641;59.794;17.616;2023-09-19T11:13:25;20.70;99.90
56771;DHT22;42641;59.794;17.616;2023-09-19T11:26:49;22.20;99.90
56771;DHT22;42641;59.794;17.616;2023-09-19T11:31:52;23.80;99.90
56771;DHT22;42641;59.794;17.616;2023-09-19T11:34:42;23.60;99.90
56771;DHT22;42641;59.794;17.616;2023-09-19T11:39:40;22.40;99.90
56771;DHT22;42641;59.794;17.616;2023-09-19T11:48:18;22.70;99.90
56771;DHT22;42641;59.794;17.616;2023-09-19T11:50:45;23.60;99.90
56771;DHT22;42641;59.794;17.616;2023-09-19T11:53:14;23.80;99.90
56771;DHT22;42641;59.794;17.616;2023-09-19T11:55:42;23.10;99.90
56771;DHT22;42641;59.794;17.616;2023-09-19T11:58:09;22.40;99.90
56771;DHT22;42641;59.794;17.616;2023-09-19T12:00:38;21.70;99.90
56771;DHT22;42641;59.794;17.616;2023-09-19T12:03:11;21.50;99.90
56771;DHT22;42641;59.794;17.616;2023-09-19T12:05:39;22.10;99.90
56771;DHT22;42641;59.794;17.616;2023-09-19T12:08:07;23.20;99.90
56771;DHT22;42641;59.794;17.616;2023-09-19T12:10:50;24.20;99.90
56771;DHT22;42641;59.794;17.616;2023-09-19T12:13:20;24.40;99.90
56771;DHT22;42641;59.794;17.616;2023-09-19T12:15:47;24.60;99.90
56771;DHT22;42641;59.794;17.616;2023-09-19T12:18:30;25.10;99.90
56771;DHT22;42641;59.794;17.616;2023-09-19T12:20:57;25.00;99.90
56771;DHT22;42641;59.794;17.616;2023-09-19T12:23:30;24.40;99.90
56771;DHT22;42641;59.794;17.616;2023-09-19T12:25:58;23.70;99.90
56771;DHT22;42641;59.794;17.616;2023-09-19T12:28:27;23.20;99.90
56771;DHT22;42641;59.794;17.616;2023-09-19T12:30:54;22.70;99.90
56771;DHT22;42641;59.794;17.616;2023-09-19T12:33:24;22.40;99.90
56771;DHT22;42641;59.794;17.616;2023-09-19T12:35:54;22.20;99.90
56771;DHT22;42641;59.794;17.616;2023-09-19T12:38:27;22.50;99.90
56771;DHT22;42641;59.794;17.616;2023-09-19T12:40:57;23.40;99.90
56771;DHT22;42641;59.794;17.616;2023-09-19T12:43:31;24.00;99.90
56771;DHT22;42641;59.794;17.616;2023-09-19T12:46:03;24.50;99.90
56771;DHT22;42641;59.794;17.616;2023-09-19T12:48:30;24.70;99.90
56771;DHT22;42641;59.794;17.616;2023-09-19T12:51:12;24.90;99.90
56771;DHT22;42641;59.794;17.616;2023-09-19T12:53:40;25.30;99.90
56771;DHT22;42641;59.794;17.616;2023-09-19T12:56:09;25.20;99.90
56771;DHT22;42641;59.794;17.616;2023-09-19T12:58:56;24.50;99.90
56771;DHT22;42641;59.794;17.616;2023-09-19T13:01:25;24.00;99.90
56771;DHT22;42641;59.794;17.616;2023-09-19T13:06:52;22.70;99.90
56771;DHT22;42641;59.794;17.616;2023-09-19T13:09:20;22.40;99.90
56771;DHT22;42641;59.794;17.616;2023-09-19T13:11:47;22.00;99.90
56771;DHT22;42641;59.794;17.616;2023-09-19T13:14:21;21.80;99.90
56771;DHT22;42641;59.794;17.616;2023-09-19T13:17:04;21.60;99.90
56771;DHT22;42641;59.794;17.616;2023-09-19T13:19:46;21.30;99.90
56771;DHT22;42641;59.794;17.616;2023-09-19T13:22:42;21.10;99.90
56771;DHT22;42641;59.794;17.616;2023-09-19T13:25:14;20.90;99.90
56771;DHT22;42641;59.794;17.616;2023-09-19T13:27:42;20.80;99.90
56771;DHT22;42641;59.794;17.616;2023-09-19T13:30:11;20.70;99.90
56771;DHT22;42641;59.794;17.616;2023-09-19T13:32:38;20.50;99.90
56771;DHT22;42641;59.794;17.616;2023-09-19T13:35:07;20.30;99.90
56771;DHT22;42641;59.794;17.616;2023-09-19T13:37:38;20.40;99.90
56771;DHT22;42641;59.794;17.616;2023-09-19T13:40:11;20.30;99.90
56771;DHT22;42641;59.794;17.616;2023-09-19T13:42:38;20.10;99.90
56771;DHT22;42641;59.794;17.616;2023-09-19T13:45:05;20.10;99.90
56771;DHT22;42641;59.794;17.616;2023-09-19T13:47:32;20.00;99.90
56771;DHT22;42641;59.794;17.616;2023-09-19T13:49:59;20.00;99.90
56771;DHT22;42641;59.794;17.616;2023-09-19T13:52:27;20.00;99.90
56771;DHT22;42641;59.794;17.616;2023-09-19T13:54:57;20.00;99.90
56771;DHT22;42641;59.794;17.616;2023-09-19T13:57:24;19.90;99.90
56771;DHT22;42641;59.794;17.616;2023-09-19T13:59:52;19.80;99.90
56771;DHT22;42641;59.794;17.616;2023-09-19T14:02:23;19.50;99.90
56771;DHT22;42641;59.794;17.616;2023-09-19T14:04:51;19.40;99.90
56771;DHT22;42641;59.794;17.616;2023-09-19T14:07:18;19.20;99.90
56771;DHT22;42641;59.794;17.616;2023-09-19T14:09:46;18.80;99.90
56771;DHT22;42641;59.794;17.616;2023-09-19T14:12:14;18.60;99.90
56771;DHT22;42641;59.794;17.616;2023-09-19T14:14:40;18.30;99.90
56771;DHT22;42641;59.794;17.616;2023-09-19T14:17:07;17.90;99.90
56771;DHT22;42641;59.794;17.616;2023-09-19T14:19:33;17.40;99.90
56771;DHT22;42641;59.794;17.616;2023-09-19T14:22:01;17.10;99.90
56771;DHT22;42641;59.794;17.616;2023-09-19T14:24:35;17.00;99.90
56771;DHT22;42641;59.794;17.616;2023-09-19T14:27:02;17.00;99.90
56771;DHT22;42641;59.794;17.616;2023-09-19T14:29:30;17.00;99.90
56771;DHT22;42641;59.794;17.616;2023-09-19T14:31:57;17.00;99.90
56771;DHT22;42641;59.794;17.616;2023-09-19T14:34:23;16.90;99.90
56771;DHT22;42641;59.794;17.616;2023-09-19T14:36:50;17.00;99.90
56771;DHT22;42641;59.794;17.616;2023-09-19T14:39:16;17.00;99.90
56771;DHT22;42641;59.794;17.616;2023-09-19T14:41:43;17.10;99.90
56771;DHT22;42641;59.794;17.616;2023-09-19T14:44:09;17.10;99.90
56771;DHT22;42641;59.794;17.616;2023-09-19T14:46:37;17.10;99.90
56771;DHT22;42641;59.794;17.616;2023-09-19T14:49:03;17.20;99.90
56771;DHT22;42641;59.794;17.616;2023-09-19T14:51:30;17.20;99.90
56771;DHT22;42641;59.794;17.616;2023-09-19T14:54:00;17.30;99.90
56771;DHT22;42641;59.794;17.616;2023-09-19T14:56:29;17.40;99.90
56771;DHT22;42641;59.794;17.616;2023-09-19T14:58:57;17.40;99.90
56771;DHT22;42641;59.794;17.616;2023-09-19T15:01:23;17.50;99.90
56771;DHT22;42641;59.794;17.616;2023-09-19T15:03:50;17.50;99.90
56771;DHT22;42641;59.794;17.616;2023-09-19T15:06:16;17.50;99.90
56771;DHT22;42641;59.794;17.616;2023-09-19T15:08:47;17.50;99.90
56771;DHT22;42641;59.794;17.616;2023-09-19T15:11:15;17.40;99.90
56771;DHT22;42641;59.794;17.616;2023-09-19T15:13:44;17.40;99.90
56771;DHT22;42641;59.794;17.616;2023-09-19T15:16:11;17.40;99.90
56771;DHT22;42641;59.794;17.616;2023-09-19T15:18:43;17.40;99.90
56771;DHT22;42641;59.794;17.616;2023-09-19T15:21:13;17.30;99.90
56771;DHT22;42641;59.794;17.616;2023-09-19T15:23:42;17.30;99.90
56771;DHT22;42641;59.794;17.616;2023-09-19T15:26:11;17.30;99.90
56771;DHT22;42641;59.794;17.616;2023-09-19T15:28:38;17.20;99.90
56771;DHT22;42641;59.794;17.616;2023-09-19T15:31:08;17.20;99.90
56771;DHT22;42641;59.794;17.616;2023-09-19T15:33:34;17.30;99.90
56771;DHT22;42641;59.794;17.616;2023-09-19T15:38:31;17.20;99.90
56771;DHT22;42641;59.794;17.616;2023-09-19T15:40:58;17.10;99.90
56771;DHT22;42641;59.794;17.616;2023-09-19T15:43:25;17.00;99.90
56771;DHT22;42641;59.794;17.616;2023-09-19T15:45:52;16.90;99.90
56771;DHT22;42641;59.794;17.616;2023-09-19T15:48:18;16.80;99.90
56771;DHT22;42641;59.794;17.616;2023-09-19T15:50:47;16.80;99.90
56771;DHT22;42641;59.794;17.616;2023-09-19T15:53:14;16.70;99.90
56771;DHT22;42641;59.794;17.616;2023-09-19T15:55:40;16.60;99.90
56771;DHT22;42641;59.794;17.616;2023-09-19T15:58:07;16.40;99.90
56771;DHT22;42641;59.794;17.616;2023-09-19T16:00:34;16.40;99.90
56771;DHT22;42641;59.794;17.616;2023-09-19T16:03:00;16.30;99.90
56771;DHT22;42641;59.794;17.616;2023-09-19T16:05:27;16.20;99.90
56771;DHT22;42641;59.794;17.616;2023-09-19T16:07:57;16.20;99.90
56771;DHT22;42641;59.794;17.616;2023-09-19T16:10:23;16.10;99.90
56771;DHT22;42641;59.794;17.616;2023-09-19T16:12:50;16.10;99.90
56771;DHT22;42641;59.794;17.616;2023-09-19T16:15:16;16.00;99.90
56771;DHT22;42641;59.794;17.616;2023-09-19T16:17:44;16.00;99.90